createdAt,value
2017-06-05T00:00:02.053Z,67.20
2017-06-05T00:02:29.676Z,67.20
2017-06-05T00:04:57.294Z,67.40
2017-06-05T00:07:24.911Z,67.50
2017-06-05T00:09:53.260Z,66.60
2017-06-05T00:12:20.854Z,66.60
2017-06-05T00:14:48.469Z,67.80
2017-06-05T00:17:16.008Z,68.20
2017-06-05T00:19:43.565Z,68.50
2017-06-05T00:22:11.929Z,68.30
2017-06-05T00:24:39.526Z,68.30
2017-06-05T00:27:07.100Z,67.80
2017-06-05T00:29:34.639Z,67.70
2017-06-05T00:32:03.042Z,67.50
2017-06-05T00:34:30.621Z,67.50
2017-06-05T00:36:58.193Z,67.70
2017-06-05T00:39:25.819Z,67.50
2017-06-05T00:41:54.157Z,67.80
2017-06-05T00:44:21.718Z,67.70
2017-06-05T00:46:49.360Z,67.50
2017-06-05T00:49:16.914Z,67.50
2017-06-05T00:51:45.296Z,67.50
2017-06-05T00:54:12.939Z,67.50
2017-06-05T00:56:40.536Z,67.70
2017-06-05T00:59:08.075Z,67.60
2017-06-05T01:01:36.483Z,68.50
2017-06-05T01:04:04.097Z,68.30
2017-06-05T01:06:31.701Z,68.50
2017-06-05T01:08:59.317Z,69.00
2017-06-05T01:11:27.652Z,69.40
2017-06-05T01:13:55.193Z,69.40
2017-06-05T01:16:22.776Z,69.10
2017-06-05T01:18:50.333Z,69.00
2017-06-05T01:21:18.680Z,69.20
2017-06-05T01:23:46.284Z,69.10
2017-06-05T01:26:13.913Z,69.40
2017-06-05T01:28:41.474Z,69.50
2017-06-05T01:31:09.808Z,69.50
2017-06-05T01:33:37.415Z,69.50
2017-06-05T01:36:04.973Z,69.30
2017-06-05T01:38:32.555Z,69.00
2017-06-05T01:41:00.933Z,68.80
2017-06-05T01:43:28.475Z,68.70
2017-06-05T01:45:56.041Z,69.10
2017-06-05T01:48:23.666Z,69.50
2017-06-05T01:50:52.074Z,69.30
2017-06-05T01:53:19.628Z,69.30
2017-06-05T01:55:47.262Z,69.50
2017-06-05T01:58:14.811Z,69.80
2017-06-05T02:00:43.161Z,70.50
2017-06-05T02:03:10.742Z,70.60
2017-06-05T02:05:38.337Z,70.70
2017-06-05T02:08:05.911Z,70.20
2017-06-05T02:10:34.267Z,70.00
2017-06-05T02:13:01.869Z,70.00
2017-06-05T02:15:29.420Z,70.40
2017-06-05T02:17:57.051Z,69.80
2017-06-05T02:20:25.390Z,69.00
2017-06-05T02:22:52.989Z,69.00
2017-06-05T02:25:20.572Z,69.40
2017-06-05T02:27:48.166Z,70.10
2017-06-05T02:30:16.557Z,70.90
2017-06-05T02:32:44.162Z,70.80
2017-06-05T02:35:11.763Z,70.80
2017-06-05T02:37:39.367Z,70.80
2017-06-05T02:40:07.693Z,70.60
2017-06-05T02:42:35.253Z,70.60
2017-06-05T02:45:02.807Z,70.20
2017-06-05T02:47:30.399Z,70.60
2017-06-05T02:49:58.712Z,70.40
2017-06-05T02:52:26.280Z,70.40
2017-06-05T02:54:53.879Z,71.60
2017-06-05T02:57:21.455Z,70.60
2017-06-05T02:59:49.761Z,70.80
2017-06-05T03:02:17.354Z,70.80
2017-06-05T03:04:44.947Z,71.00
2017-06-05T03:07:12.562Z,71.70
2017-06-05T03:09:41.058Z,71.80
2017-06-05T03:12:09.414Z,72.70
2017-06-05T03:14:37.008Z,72.70
2017-06-05T03:17:04.584Z,72.40
2017-06-05T03:19:32.182Z,72.00
2017-06-05T03:22:00.503Z,71.70
2017-06-05T03:24:28.117Z,71.70
2017-06-05T03:26:55.714Z,72.70
2017-06-05T03:29:23.282Z,72.90
2017-06-05T03:31:51.660Z,72.90
2017-06-05T03:34:19.215Z,73.70
2017-06-05T03:36:46.763Z,72.50
2017-06-05T03:39:14.355Z,73.50
2017-06-05T03:41:42.752Z,73.30
2017-06-05T03:44:10.388Z,73.30
2017-06-05T03:46:37.973Z,72.50
2017-06-05T03:49:05.532Z,72.80
2017-06-05T03:51:33.881Z,72.40
2017-06-05T03:54:01.446Z,72.40
2017-06-05T03:56:29.032Z,72.40
2017-06-05T03:58:56.620Z,72.40
2017-06-05T04:01:24.985Z,72.10
2017-06-05T04:03:52.605Z,72.20
2017-06-05T04:06:20.184Z,72.20
2017-06-05T04:08:47.772Z,71.70
2017-06-05T04:11:16.121Z,72.40
2017-06-05T04:13:43.670Z,72.40
2017-06-05T04:16:11.226Z,72.40
2017-06-05T04:18:38.829Z,72.00
2017-06-05T04:21:07.214Z,71.80
2017-06-05T04:23:34.852Z,71.80
2017-06-05T04:26:02.392Z,72.00
2017-06-05T04:28:29.957Z,72.20
2017-06-05T04:30:58.327Z,72.40
2017-06-05T04:33:25.906Z,72.30
2017-06-05T04:35:53.517Z,68.90
2017-06-05T04:38:21.079Z,72.30
2017-06-05T04:40:49.464Z,73.40
2017-06-05T04:43:16.999Z,73.30
2017-06-05T04:45:44.602Z,73.60
2017-06-05T04:48:12.225Z,74.00
2017-06-05T04:50:40.618Z,71.90
2017-06-05T04:53:08.217Z,71.90
2017-06-05T04:55:35.819Z,72.00
2017-06-05T04:58:03.412Z,71.20
2017-06-05T05:00:31.841Z,72.50
2017-06-05T05:02:59.474Z,72.50
2017-06-05T05:05:27.046Z,72.20
2017-06-05T05:07:54.641Z,71.40
2017-06-05T05:10:23.019Z,71.90
2017-06-05T05:12:50.635Z,71.70
2017-06-05T05:15:18.209Z,73.00
2017-06-05T05:17:45.802Z,71.80
2017-06-05T05:20:14.187Z,71.60
2017-06-05T05:22:41.799Z,71.60
2017-06-05T05:25:09.429Z,71.20
2017-06-05T05:27:37.033Z,71.40
2017-06-05T05:30:05.415Z,71.00
2017-06-05T05:32:33.060Z,71.00
2017-06-05T05:35:00.666Z,71.40
2017-06-05T05:37:28.211Z,71.60
2017-06-05T05:39:56.534Z,71.00
2017-06-05T05:42:24.182Z,71.00
2017-06-05T05:44:51.830Z,70.50
2017-06-05T05:47:19.400Z,70.80
2017-06-05T05:49:47.697Z,69.60
2017-06-05T05:52:15.339Z,69.50
2017-06-05T05:54:42.903Z,69.80
2017-06-05T05:57:10.529Z,70.70
2017-06-05T05:59:38.080Z,70.70
2017-06-05T06:02:06.446Z,68.90
2017-06-05T06:04:34.017Z,68.90
2017-06-05T06:07:01.560Z,68.90
2017-06-05T06:09:29.106Z,68.30
2017-06-05T06:11:57.556Z,66.40
2017-06-05T06:14:25.083Z,66.40
2017-06-05T06:16:52.669Z,63.80
2017-06-05T06:19:20.244Z,63.50
2017-06-05T06:21:48.593Z,60.80
2017-06-05T06:24:16.142Z,60.70
2017-06-05T06:26:43.713Z,63.90
2017-06-05T06:29:11.720Z,62.40
2017-06-05T06:31:40.219Z,62.10
2017-06-05T06:34:07.758Z,62.10
2017-06-05T06:36:35.327Z,59.50
2017-06-05T06:39:02.868Z,62.00
2017-06-05T06:41:31.238Z,59.50
2017-06-05T06:43:58.816Z,59.50
2017-06-05T06:46:26.370Z,60.00
2017-06-05T06:48:53.910Z,60.80
2017-06-05T06:51:22.249Z,61.50
2017-06-05T06:53:49.829Z,61.50
2017-06-05T06:56:17.370Z,63.30
2017-06-05T06:58:44.938Z,61.50
2017-06-05T07:01:13.252Z,60.30
2017-06-05T07:03:41.586Z,61.90
2017-06-05T07:06:09.093Z,62.00
2017-06-05T07:08:36.609Z,62.90
2017-06-05T07:11:04.949Z,58.60
2017-06-05T07:13:32.476Z,58.60
2017-06-05T07:16:00.004Z,58.50
2017-06-05T07:18:28.317Z,58.50
2017-06-05T07:20:56.601Z,58.20
2017-06-05T07:23:24.938Z,57.40
2017-06-05T07:25:52.497Z,57.50
2017-06-05T07:28:20.017Z,56.90
2017-06-05T07:30:48.321Z,58.40
2017-06-05T07:33:15.816Z,58.40
2017-06-05T07:35:43.337Z,56.90
2017-06-05T07:38:11.598Z,58.20
2017-06-05T07:40:39.908Z,54.90
2017-06-05T07:43:08.214Z,54.90
2017-06-05T07:45:36.472Z,51.40
2017-06-05T07:48:04.011Z,51.30
2017-06-05T07:50:32.276Z,53.10
2017-06-05T07:52:59.813Z,53.00
2017-06-05T07:55:27.332Z,53.10
2017-06-05T07:57:55.593Z,54.10
2017-06-05T08:00:24.376Z,55.10
2017-06-05T08:02:51.880Z,55.00
2017-06-05T08:05:20.153Z,53.40
2017-06-05T08:07:48.451Z,53.50
2017-06-05T08:10:16.712Z,53.90
2017-06-05T08:12:45.059Z,55.00
2017-06-05T08:15:12.575Z,55.00
2017-06-05T08:17:40.857Z,52.30
2017-06-05T08:20:09.175Z,51.40
2017-06-05T08:22:36.757Z,51.30
2017-06-05T08:25:04.294Z,49.40
2017-06-05T08:27:31.857Z,53.40
2017-06-05T08:30:00.206Z,49.80
2017-06-05T08:32:28.496Z,50.70
2017-06-05T08:34:56.032Z,50.70
2017-06-05T08:37:24.323Z,50.60
2017-06-05T08:39:53.512Z,47.60
2017-06-05T08:42:21.811Z,46.80
2017-06-05T08:44:49.332Z,46.70
2017-06-05T08:47:16.889Z,51.40
2017-06-05T08:49:44.409Z,50.30
2017-06-05T08:52:12.689Z,49.40
2017-06-05T08:54:40.277Z,49.40
2017-06-05T08:57:07.793Z,49.20
2017-06-05T08:59:35.322Z,48.10
2017-06-05T09:02:03.679Z,45.20
2017-06-05T09:04:31.963Z,48.10
2017-06-05T09:06:59.566Z,48.10
2017-06-05T09:09:27.842Z,47.70
2017-06-05T09:11:56.117Z,49.50
2017-06-05T09:14:23.689Z,49.50
2017-06-05T09:16:51.984Z,45.00
2017-06-05T09:19:20.276Z,44.90
2017-06-05T09:21:48.638Z,44.60
2017-06-05T09:24:16.987Z,46.90
2017-06-05T09:26:44.499Z,46.90
2017-06-05T09:29:12.013Z,48.90
2017-06-05T09:31:40.347Z,45.20
2017-06-05T09:34:07.872Z,45.20
2017-06-05T09:36:36.159Z,46.70
2017-06-05T09:39:03.732Z,46.10
2017-06-05T09:41:32.040Z,48.20
2017-06-05T09:44:00.338Z,41.60
2017-06-05T09:46:27.892Z,41.50
2017-06-05T09:48:55.401Z,43.20
2017-06-05T09:51:23.695Z,42.50
2017-06-05T09:53:52.041Z,40.30
2017-06-05T09:56:19.550Z,40.30
2017-06-05T09:58:47.082Z,38.30
2017-06-05T10:01:15.415Z,40.10
2017-06-05T10:03:42.953Z,40.10
2017-06-05T10:06:10.465Z,41.20
2017-06-05T10:08:38.005Z,39.70
2017-06-05T10:11:06.369Z,40.20
2017-06-05T10:13:33.911Z,40.10
2017-06-05T10:16:01.453Z,41.40
2017-06-05T10:18:28.990Z,44.90
2017-06-05T10:20:57.261Z,38.60
2017-06-05T10:23:24.779Z,38.60
2017-06-05T10:25:53.103Z,41.90
2017-06-05T10:28:21.433Z,40.90
2017-06-05T10:30:49.708Z,40.90
2017-06-05T10:33:18.001Z,39.50
2017-06-05T10:35:45.580Z,39.50
2017-06-05T10:38:13.093Z,40.70
2017-06-05T10:40:41.379Z,42.50
2017-06-05T10:43:08.969Z,42.50
2017-06-05T10:45:37.257Z,41.90
2017-06-05T10:48:05.542Z,40.00
2017-06-05T10:50:33.859Z,39.10
2017-06-05T10:53:01.418Z,39.00
2017-06-05T10:55:29.733Z,40.70
2017-06-05T10:57:57.239Z,40.70
2017-06-05T11:00:25.518Z,39.40
2017-06-05T11:02:53.077Z,39.40
2017-06-05T11:05:21.350Z,39.60
2017-06-05T11:07:50.152Z,39.60
2017-06-05T11:10:18.514Z,41.10
2017-06-05T11:12:46.120Z,40.80
2017-06-05T11:15:13.766Z,39.50
2017-06-05T11:17:41.418Z,43.00
2017-06-05T11:20:09.786Z,39.70
2017-06-05T11:22:37.523Z,39.50
2017-06-05T11:25:05.082Z,37.80
2017-06-05T11:27:33.673Z,38.30
2017-06-05T11:30:02.067Z,40.20
2017-06-05T11:32:29.785Z,40.20
2017-06-05T11:34:57.555Z,38.90
2017-06-05T11:37:26.503Z,38.40
2017-06-05T11:39:55.151Z,39.30
2017-06-05T11:42:22.826Z,39.40
2017-06-05T11:44:50.485Z,39.90
2017-06-05T11:47:18.146Z,39.50
2017-06-05T11:49:45.798Z,39.10
2017-06-05T11:52:14.349Z,38.70
2017-06-05T11:54:42.036Z,38.70
2017-06-05T11:57:10.747Z,39.40
2017-06-05T11:59:38.877Z,37.80
2017-06-05T12:02:07.291Z,40.20
2017-06-05T12:04:34.889Z,40.20
2017-06-05T12:07:02.518Z,41.90
2017-06-05T12:09:30.174Z,36.80
2017-06-05T12:11:58.535Z,38.60
2017-06-05T12:14:26.199Z,38.60
2017-06-05T12:16:53.790Z,36.50
2017-06-05T12:19:21.449Z,37.00
2017-06-05T12:21:49.819Z,39.50
2017-06-05T12:24:17.373Z,39.40
2017-06-05T12:26:44.948Z,38.30
2017-06-05T12:29:12.568Z,36.60
2017-06-05T12:31:40.961Z,37.60
2017-06-05T12:34:08.724Z,37.50
2017-06-05T12:36:36.428Z,37.30
2017-06-05T12:39:04.418Z,35.10
2017-06-05T12:41:32.921Z,35.30
2017-06-05T12:44:00.837Z,35.30
2017-06-05T12:46:28.450Z,36.70
2017-06-05T12:48:55.986Z,37.80
2017-06-05T12:51:24.313Z,35.30
2017-06-05T12:53:51.863Z,35.30
2017-06-05T12:56:19.452Z,36.40
2017-06-05T12:58:47.037Z,37.80
2017-06-05T13:01:15.384Z,36.30
2017-06-05T13:03:42.989Z,36.30
2017-06-05T13:06:10.579Z,35.10
2017-06-05T13:08:38.263Z,34.20
2017-06-05T13:11:06.603Z,34.80
2017-06-05T13:13:34.200Z,34.80
2017-06-05T13:16:01.783Z,35.70
2017-06-05T13:18:29.414Z,35.20
2017-06-05T13:20:57.766Z,35.10
2017-06-05T13:23:25.927Z,35.10
2017-06-05T13:25:53.569Z,33.50
2017-06-05T13:28:22.287Z,34.50
2017-06-05T13:30:50.652Z,33.40
2017-06-05T13:33:18.335Z,33.40
2017-06-05T13:35:45.972Z,34.00
2017-06-05T13:38:13.572Z,35.00
2017-06-05T13:40:41.899Z,34.30
2017-06-05T13:43:09.492Z,34.20
2017-06-05T13:45:37.097Z,37.70
2017-06-05T13:48:04.714Z,37.10
2017-06-05T13:50:33.122Z,34.80
2017-06-05T13:53:00.771Z,34.80
2017-06-05T13:55:28.377Z,35.70
2017-06-05T13:57:56.021Z,36.80
2017-06-05T14:00:24.489Z,35.70
2017-06-05T14:02:52.047Z,35.70
2017-06-05T14:05:19.627Z,37.20
2017-06-05T14:07:47.221Z,35.80
2017-06-05T14:10:15.554Z,34.10
2017-06-05T14:12:43.088Z,34.10
2017-06-05T14:15:10.689Z,32.30
2017-06-05T14:17:38.262Z,34.10
2017-06-05T14:20:06.591Z,34.20
2017-06-05T14:22:34.180Z,34.30
2017-06-05T14:25:01.753Z,34.30
2017-06-05T14:27:29.315Z,35.90
2017-06-05T14:29:57.732Z,37.10
2017-06-05T14:32:28.601Z,37.00
2017-06-05T14:34:56.328Z,34.70
2017-06-05T14:37:23.992Z,36.90
2017-06-05T14:39:52.375Z,36.60
2017-06-05T14:42:19.957Z,36.70
2017-06-05T14:44:47.544Z,37.60
2017-06-05T14:47:16.297Z,37.80
2017-06-05T14:49:43.937Z,37.00
2017-06-05T14:52:13.266Z,36.60
2017-06-05T14:54:40.934Z,36.60
2017-06-05T14:57:08.617Z,36.90
2017-06-05T14:59:36.521Z,37.10
2017-06-05T15:02:05.041Z,37.60
2017-06-05T15:04:32.633Z,37.60
2017-06-05T15:07:00.201Z,37.10
2017-06-05T15:09:27.781Z,38.20
2017-06-05T15:11:56.084Z,37.10
2017-06-05T15:14:23.665Z,37.10
2017-06-05T15:16:51.197Z,35.80
2017-06-05T15:19:18.736Z,35.80
2017-06-05T15:21:48.083Z,39.50
2017-06-05T15:24:15.625Z,39.50
2017-06-05T15:26:43.937Z,39.70
2017-06-05T15:29:11.695Z,39.70
2017-06-05T15:31:40.012Z,36.40
2017-06-05T15:34:07.876Z,36.50
2017-06-05T15:36:35.517Z,37.40
2017-06-05T15:39:05.379Z,35.70
2017-06-05T15:41:33.773Z,37.20
2017-06-05T15:44:01.377Z,37.10
2017-06-05T15:46:29.003Z,36.30
2017-06-05T15:48:56.831Z,35.40
2017-06-05T15:51:25.243Z,33.90
2017-06-05T15:53:52.851Z,33.90
2017-06-05T15:56:20.443Z,35.20
2017-06-05T15:58:48.012Z,35.00
2017-06-05T16:01:16.322Z,36.20
2017-06-05T16:03:43.963Z,36.10
2017-06-05T16:06:12.725Z,36.70
2017-06-05T16:08:40.366Z,36.30
2017-06-05T16:11:08.682Z,34.40
2017-06-05T16:13:36.241Z,35.00
2017-06-05T16:16:03.776Z,34.10
2017-06-05T16:18:31.357Z,35.40
2017-06-05T16:20:59.741Z,36.30
2017-06-05T16:23:27.278Z,36.30
2017-06-05T16:25:54.821Z,34.70
2017-06-05T16:28:22.377Z,33.50
2017-06-05T16:30:50.701Z,35.30
2017-06-05T16:33:18.217Z,35.20
2017-06-05T16:35:45.737Z,33.30
2017-06-05T16:38:14.040Z,36.80
2017-06-05T16:40:42.326Z,35.70
2017-06-05T16:43:09.882Z,35.70
2017-06-05T16:45:37.417Z,36.70
2017-06-05T16:48:04.941Z,35.90
2017-06-05T16:50:33.254Z,32.90
2017-06-05T16:53:00.781Z,32.90
2017-06-05T16:55:28.338Z,33.50
2017-06-05T16:57:55.865Z,37.40
2017-06-05T17:00:24.221Z,36.90
2017-06-05T17:02:51.774Z,36.90
2017-06-05T17:05:19.339Z,35.50
2017-06-05T17:07:46.949Z,35.80
2017-06-05T17:10:15.288Z,36.00
2017-06-05T17:12:42.820Z,36.00
2017-06-05T17:15:10.421Z,38.40
2017-06-05T17:17:37.950Z,39.20
2017-06-05T17:20:06.233Z,39.50
2017-06-05T17:22:33.780Z,39.40
2017-06-05T17:25:02.110Z,37.30
2017-06-05T17:27:38.170Z,40.10
2017-06-05T17:30:06.635Z,36.50
2017-06-05T17:47:20.198Z,36.90
2017-06-05T17:49:48.704Z,38.60
2017-06-05T17:52:18.192Z,38.70
2017-06-05T17:54:46.438Z,42.30
2017-06-05T17:57:14.100Z,42.10
2017-06-05T17:59:41.713Z,42.70
2017-06-05T18:02:10.196Z,44.60
2017-06-05T18:04:37.873Z,44.30
2017-06-05T18:07:05.792Z,42.70
2017-06-05T18:09:33.619Z,43.00
2017-06-05T18:12:04.294Z,44.00
2017-06-05T18:14:36.091Z,44.00
2017-06-05T18:17:04.668Z,43.90
2017-06-05T18:19:32.876Z,41.10
2017-06-05T18:22:01.536Z,44.60
2017-06-05T18:24:29.166Z,44.60
2017-06-05T18:30:49.987Z,43.40
2017-06-05T18:33:22.817Z,43.50
2017-06-05T18:35:50.950Z,43.60
2017-06-05T18:38:24.384Z,43.90
2017-06-05T18:40:59.610Z,43.40
2017-06-05T18:43:27.614Z,43.50
2017-06-05T18:46:02.059Z,43.70
2017-06-05T18:48:31.437Z,45.70
2017-06-05T18:54:00.027Z,45.40
2017-06-05T18:56:28.278Z,45.40
2017-06-05T18:58:56.156Z,46.20
2017-06-05T19:01:26.204Z,44.00
2017-06-05T19:03:59.872Z,46.80
2017-06-05T19:06:27.579Z,46.80
2017-06-05T19:09:20.070Z,46.40
2017-06-05T19:11:51.506Z,46.80
2017-06-05T19:14:20.187Z,46.80
2017-06-05T19:16:48.262Z,48.00
2017-06-05T19:19:34.665Z,48.30
2017-06-05T19:22:04.856Z,48.30
2017-06-05T19:24:47.350Z,48.20
2017-06-05T19:30:09.852Z,47.30
2017-06-05T19:32:38.311Z,48.60
2017-06-05T19:35:05.917Z,49.90
2017-06-05T19:37:34.613Z,50.40
2017-06-05T19:40:03.274Z,50.30
2017-06-05T19:42:30.915Z,50.40
2017-06-05T19:45:04.498Z,50.50
2017-06-05T19:47:32.119Z,50.90
2017-06-05T19:50:00.421Z,51.50
2017-06-05T19:52:27.981Z,51.50
2017-06-05T19:54:55.533Z,51.30
2017-06-05T19:57:23.106Z,51.20
2017-06-05T19:59:51.442Z,50.30
2017-06-05T20:02:19.090Z,50.40
2017-06-05T20:04:46.795Z,52.60
2017-06-05T20:07:14.348Z,51.50
2017-06-05T20:09:42.016Z,52.50
2017-06-05T20:12:10.422Z,52.80
2017-06-05T20:14:38.104Z,52.10
2017-06-05T20:17:05.811Z,50.60
2017-06-05T20:19:33.502Z,52.10
2017-06-05T20:22:01.968Z,52.50
2017-06-05T20:24:29.600Z,52.40
2017-06-05T20:26:57.377Z,51.00
2017-06-05T20:29:25.054Z,52.10
2017-06-05T20:31:53.473Z,52.30
2017-06-05T20:34:21.121Z,52.30
2017-06-05T20:36:48.807Z,51.40
2017-06-05T20:39:16.448Z,53.20
2017-06-05T20:41:44.788Z,52.50
2017-06-05T20:44:12.474Z,52.50
2017-06-05T20:46:47.287Z,54.10
2017-06-05T20:49:29.877Z,52.60
2017-06-05T20:58:04.973Z,53.00
2017-06-05T21:03:25.062Z,51.80
2017-06-05T21:08:56.142Z,52.60
2017-06-05T21:11:30.706Z,51.20
2017-06-05T21:17:05.636Z,54.00
2017-06-05T21:19:37.928Z,53.30
2017-06-05T21:22:30.587Z,53.80
2017-06-05T21:34:01.011Z,53.20
2017-06-05T21:42:32.389Z,53.70
2017-06-05T21:45:15.891Z,53.60
2017-06-05T21:47:59.498Z,53.10
2017-06-05T21:50:42.314Z,55.10
2017-06-05T21:56:27.070Z,55.10
2017-06-05T22:16:41.401Z,54.40
2017-06-05T22:27:06.337Z,55.40
2017-06-05T22:32:44.922Z,56.00
2017-06-05T22:38:14.930Z,55.40
2017-06-05T22:40:51.174Z,56.90
2017-06-05T22:43:21.182Z,57.00
2017-06-05T22:46:01.632Z,55.00
2017-06-05T22:51:23.680Z,55.60
2017-06-05T22:53:56.988Z,55.60
2017-06-05T22:59:07.554Z,56.40
2017-06-05T23:07:53.450Z,56.10
2017-06-05T23:10:26.874Z,57.20
2017-06-05T23:13:02.266Z,57.20
2017-06-05T23:16:14.896Z,58.20
2017-06-05T23:18:52.508Z,57.50
2017-06-05T23:21:29.452Z,58.00
2017-06-05T23:23:59.063Z,58.00
2017-06-05T23:26:34.768Z,58.50
2017-06-05T23:29:07.949Z,57.00
2017-06-05T23:31:39.790Z,57.80
2017-06-05T23:34:23.058Z,57.80
2017-06-05T23:39:26.413Z,57.80
2017-06-05T23:42:00.637Z,58.40
2017-06-05T23:44:42.098Z,58.30
2017-06-05T23:47:16.657Z,57.80
2017-06-05T23:49:49.314Z,57.80
2017-06-05T23:55:17.954Z,57.70
2017-06-05T23:57:51.664Z,57.50
